Time;durP1;ratioP1;P1;durP2;ratioP2;P2;SDS_P1;SDS_P2;PMS_P1;PMS_P2;Temp;Humidity;BMP_temperature;BMP_pressure;BME280_temperature;BME280_humidity;BME280_pressure;Samples;Min_cycle;Max_cycle;Signal;HPM_P1;HPM_P2
2021/08/18 00:03:35;;;;;;;12.47;7.90;;;;;;;17.55;66.21;99976.15;2898264;82;20962;-57
2021/08/18 00:07:37;;;;;;;11.15;7.80;;;;;;;17.56;66.14;99977.82;2898212;82;20981;-60
2021/08/18 00:11:46;;;;;;;12.35;8.93;;;;;;;17.59;66.18;99974.44;2898233;82;21019;-63
2021/08/18 00:15:49;;;;;;;10.28;6.80;;;;;;;17.58;66.13;99983.00;2897969;82;20986;-57
2021/08/18 00:19:51;;;;;;;11.60;7.78;;;;;;;17.56;66.20;99981.85;2898350;82;20990;-60
2021/08/18 00:23:53;;;;;;;11.35;7.40;;;;;;;17.52;66.12;99977.86;2898399;82;20966;-59
2021/08/18 00:27:56;;;;;;;9.93;6.95;;;;;;;17.47;66.34;99982.91;2898457;82;21021;-63
2021/08/18 00:31:58;;;;;;;12.15;7.17;;;;;;;17.43;66.48;99982.12;2898410;82;20986;-58
2021/08/18 00:35:59;;;;;;;12.85;7.62;;;;;;;17.36;66.95;99984.16;2898232;82;20946;-57
2021/08/18 00:40:26;;;;;;;9.55;7.25;;;;;;;17.32;66.69;99983.38;2898668;82;21001;-59
2021/08/18 00:44:29;;;;;;;11.80;8.00;;;;;;;17.28;66.84;99993.11;2898260;82;20973;-58
2021/08/18 00:48:33;;;;;;;8.18;6.85;;;;;;;17.23;66.87;99993.33;2898300;82;20962;-60
2021/08/18 00:52:35;;;;;;;10.38;7.70;;;;;;;17.16;66.89;99993.69;2897349;82;20994;-60
2021/08/18 00:56:36;;;;;;;15.18;7.42;;;;;;;17.07;66.88;99996.43;2909249;77;21045;-58
2021/08/18 01:00:38;;;;;;;8.48;6.33;;;;;;;16.98;67.12;99989.38;2909896;77;21302;-62
2021/08/18 01:04:43;;;;;;;10.80;7.67;;;;;;;16.87;67.15;99991.95;2910473;82;20926;-58
2021/08/18 01:08:44;;;;;;;10.98;7.60;;;;;;;16.78;67.36;99995.69;2872501;80;21046;-60
2021/08/18 01:13:09;;;;;;;8.90;6.28;;;;;;;16.66;67.71;99988.52;2860960;80;21036;-58
2021/08/18 01:17:12;;;;;;;9.40;6.70;;;;;;;16.56;67.65;99991.40;2861072;83;20969;-60
2021/08/18 01:21:14;;;;;;;11.80;6.17;;;;;;;16.45;67.89;99998.47;2861144;80;20996;-58
2021/08/18 01:26:19;;;;;;;8.08;6.25;;;;;;;16.36;68.00;99994.47;2860954;80;21006;-61
2021/08/18 01:30:23;;;;;;;10.95;6.25;;;;;;;16.25;68.23;99994.32;2860869;83;21003;-58
2021/08/18 01:34:26;;;;;;;12.25;7.35;;;;;;;16.21;68.45;99997.51;2860860;83;21009;-59
2021/08/18 01:38:48;;;;;;;8.28;6.62;;;;;;;16.16;68.64;99982.43;2861000;82;20961;-58
2021/08/18 01:42:51;;;;;;;8.35;5.87;;;;;;;16.11;68.83;99986.95;2860789;83;20980;-58
2021/08/18 01:47:13;;;;;;;8.10;6.22;;;;;;;16.02;69.23;99998.72;2860750;83;20981;-59
2021/08/18 01:51:15;;;;;;;10.72;8.15;;;;;;;15.93;69.52;99999.22;2860890;83;21041;-64
2021/08/18 01:55:17;;;;;;;9.15;7.17;;;;;;;15.84;69.78;100004.53;2891468;81;21044;-58
2021/08/18 01:59:19;;;;;;;9.75;7.10;;;;;;;15.76;70.00;100003.69;2919086;81;20989;-58
2021/08/18 02:03:23;;;;;;;8.53;5.72;;;;;;;15.67;70.39;100006.37;2919191;81;20969;-57
2021/08/18 02:07:25;;;;;;;9.93;6.28;;;;;;;15.59;70.88;100002.33;2918865;81;21004;-58
2021/08/18 02:11:26;;;;;;;7.78;5.85;;;;;;;15.53;71.21;100009.22;2918914;81;21020;-59
2021/08/18 02:15:32;;;;;;;11.43;7.33;;;;;;;15.44;71.46;100004.00;2919045;78;20981;-57
2021/08/18 02:19:35;;;;;;;;;;;;;;;15.38;71.71;100007.66;2921693;81;21004;-57
2021/08/18 02:24:16;;;;;;;8.85;7.20;;;;;;;15.33;72.04;100011.34;2919048;78;20117;-57
2021/08/18 02:28:48;;;;;;;10.50;6.58;;;;;;;15.28;72.16;100014.50;2919031;81;21456;-58
2021/08/18 02:32:50;;;;;;;10.43;6.78;;;;;;;15.24;72.46;100018.52;2919062;78;20981;-58
2021/08/18 02:36:52;;;;;;;10.65;5.87;;;;;;;15.15;72.63;100010.13;2918995;81;21040;-58
2021/08/18 02:40:54;;;;;;;9.95;4.85;;;;;;;15.08;72.91;100014.44;2918808;78;21081;-58
2021/08/18 02:44:57;;;;;;;13.03;7.47;;;;;;;15.01;73.01;100013.42;2919008;81;20977;-59
2021/08/18 02:48:59;;;;;;;7.83;5.87;;;;;;;14.96;73.13;100017.42;2918725;78;20957;-59
2021/08/18 02:53:08;;;;;;;12.75;6.33;;;;;;;14.92;73.09;100017.38;2918831;81;21000;-58
2021/08/18 02:57:09;;;;;;;9.40;6.97;;;;;;;14.91;73.12;100015.70;2917083;81;21039;-59
2021/08/18 03:01:30;;;;;;;13.98;8.53;;;;;;;14.89;73.22;100011.02;2916627;81;21005;-59
2021/08/18 03:05:32;;;;;;;9.08;6.03;;;;;;;14.87;73.44;100009.52;2917091;81;20984;-58
2021/08/18 03:09:36;;;;;;;12.33;8.48;;;;;;;14.87;73.55;100013.02;2917131;81;21364;-59
2021/08/18 03:13:38;;;;;;;8.65;6.75;;;;;;;14.87;73.62;100010.86;2917113;81;21001;-59
2021/08/18 03:17:40;;;;;;;9.23;6.62;;;;;;;14.80;73.83;100009.31;2917114;81;21013;-56
2021/08/18 03:21:46;;;;;;;10.63;6.85;;;;;;;14.76;74.30;100002.61;2917161;80;20984;-55
2021/08/18 03:25:47;;;;;;;;;;;;;;;14.70;74.69;100002.70;2919751;81;20981;-56
2021/08/18 03:29:50;;;;;;;8.53;6.33;;;;;;;14.64;75.18;100002.84;2917277;81;20118;-55
2021/08/18 03:33:52;;;;;;;12.73;8.10;;;;;;;14.62;75.26;100002.16;2908913;80;21058;-56
2021/08/18 03:37:54;;;;;;;12.65;7.03;;;;;;;14.63;75.15;100006.52;2867000;83;21039;-57
2021/08/18 03:42:00;;;;;;;6.37;5.58;;;;;;;14.62;75.28;100012.88;2858347;83;21062;-57
2021/08/18 03:46:02;;;;;;;10.45;6.97;;;;;;;14.57;75.44;100008.50;2867036;83;21002;-56
2021/08/18 03:50:08;;;;;;;8.93;5.90;;;;;;;14.57;75.46;100007.16;2867025;78;20971;-56
2021/08/18 03:54:33;;;;;;;8.15;6.17;;;;;;;14.53;75.71;100006.63;2866620;79;21026;-56
2021/08/18 03:58:35;;;;;;;6.80;4.55;;;;;;;14.49;75.85;100012.45;2867284;79;20979;-56
2021/08/18 04:02:37;;;;;;;8.35;5.10;;;;;;;14.48;75.79;100010.30;2868419;79;20977;-56
2021/08/18 04:06:39;;;;;;;8.05;5.97;;;;;;;14.42;75.84;100015.77;2866938;81;20997;-55
2021/08/18 04:10:43;;;;;;;7.62;5.50;;;;;;;14.39;76.20;100020.11;2867240;78;21032;-57
2021/08/18 04:14:45;;;;;;;8.03;5.45;;;;;;;14.48;76.56;100026.83;2867030;83;21017;-55
2021/08/18 04:18:46;;;;;;;10.32;6.45;;;;;;;14.75;76.31;100023.69;2867270;79;21226;-56
2021/08/18 04:22:49;;;;;;;11.03;5.85;;;;;;;15.10;75.42;100023.14;2867077;81;21040;-58
2021/08/18 04:26:53;;;;;;;10.38;5.42;;;;;;;15.40;74.10;100026.27;2867163;83;21016;-56
2021/08/18 04:35:09;;;;;;;5.53;4.95;;;;;;;15.83;72.82;100037.72;2836189;81;21110;-70
2021/08/18 04:39:11;;;;;;;5.87;5.28;;;;;;;16.01;72.00;100052.85;2795038;80;71563;-57
2021/08/18 04:43:14;;;;;;;8.68;5.35;;;;;;;15.88;72.03;100057.34;2745614;86;21001;-57
2021/08/18 04:47:23;;;;;;;7.08;5.45;;;;;;;15.93;72.42;100062.25;2744988;87;21020;-56
2021/08/18 04:51:26;;;;;;;6.97;4.25;;;;;;;16.34;71.97;100060.91;2745101;84;20969;-55
2021/08/18 04:55:29;;;;;;;7.22;4.85;;;;;;;16.57;70.87;100053.48;2745147;86;20990;-57
2021/08/18 04:59:31;;;;;;;5.17;4.00;;;;;;;16.99;69.78;100056.91;2745452;87;20972;-56
2021/08/18 05:03:48;;;;;;;4.15;3.67;;;;;;;17.30;68.85;100054.77;2745445;86;20996;-57
2021/08/18 05:07:51;;;;;;;9.35;5.33;;;;;;;17.70;67.68;100051.52;2745584;87;20981;-56
2021/08/18 05:11:54;;;;;;;8.50;4.65;;;;;;;18.02;66.30;100052.82;2745579;85;21032;-56
2021/08/18 05:16:16;;;;;;;6.17;4.65;;;;;;;18.27;65.30;100065.56;2745290;86;20968;-58
2021/08/18 05:20:17;;;;;;;6.85;4.22;;;;;;;18.61;64.92;100053.97;2745749;86;20985;-58
2021/08/18 05:24:19;;;;;;;8.28;4.30;;;;;;;18.84;63.70;100056.59;2745553;87;21496;-56
2021/08/18 05:28:29;;;;;;;5.20;4.00;;;;;;;18.95;63.05;100058.47;2745682;87;20949;-55
2021/08/18 05:32:31;;;;;;;8.05;4.75;;;;;;;19.21;62.23;100068.80;2745488;87;20938;-56
2021/08/18 05:36:34;;;;;;;6.62;3.80;;;;;;;19.44;62.09;100073.22;2745434;87;21127;-55
2021/08/18 05:40:36;;;;;;;13.88;4.95;;;;;;;19.51;60.84;100075.50;2739963;87;21036;-56
2021/08/18 05:44:53;;;;;;;8.65;5.00;;;;;;;19.50;61.34;100077.87;2738385;87;20954;-56
2021/08/18 05:48:55;;;;;;;6.60;4.20;;;;;;;19.66;60.79;100075.98;2737983;86;21230;-58
2021/08/18 05:53:03;;;;;;;7.85;5.10;;;;;;;19.54;60.14;100077.81;2738233;87;21002;-55
2021/08/18 05:57:06;;;;;;;7.40;4.28;;;;;;;19.51;61.49;100077.34;2738221;85;20922;-56
2021/08/18 06:01:09;;;;;;;7.00;3.90;;;;;;;19.48;60.96;100079.94;2793310;81;70369;-71
2021/08/18 06:05:12;;;;;;;9.95;3.98;;;;;;;19.61;60.81;100077.05;2874659;83;21055;-71
2021/08/18 06:09:13;;;;;;;5.62;4.30;;;;;;;19.77;60.37;100074.64;2874673;83;21510;-72
2021/08/18 06:13:16;;;;;;;4.03;3.62;;;;;;;19.88;60.51;100071.95;2874515;83;21024;-71
2021/08/18 06:17:18;;;;;;;4.95;3.08;;;;;;;19.84;60.32;100057.46;2874502;82;21030;-71
2021/08/18 06:21:19;;;;;;;5.65;3.95;;;;;;;19.84;60.65;100061.51;2874642;82;20940;-71
2021/08/18 06:25:21;;;;;;;6.55;3.90;;;;;;;19.85;60.29;100051.56;2874764;82;21027;-71
2021/08/18 06:29:28;;;;;;;5.55;4.08;;;;;;;19.95;60.40;100059.38;2874953;82;21062;-71
2021/08/18 06:33:28;;;;;;;7.15;4.58;;;;;;;20.08;60.48;100062.20;2874821;81;21047;-71
2021/08/18 06:37:30;;;;;;;4.10;2.37;;;;;;;20.09;60.19;100059.83;2875207;82;21032;-70
2021/08/18 06:41:32;;;;;;;5.65;4.03;;;;;;;20.10;60.01;100055.23;2875014;83;21019;-71
2021/08/18 06:45:33;;;;;;;3.17;2.05;;;;;;;20.07;60.03;100067.28;2874591;83;21031;-71
2021/08/18 06:49:36;;;;;;;3.10;2.75;;;;;;;19.89;60.47;100064.98;2874824;83;20996;-71
2021/08/18 06:53:37;;;;;;;4.65;2.80;;;;;;;19.73;61.33;100062.03;2874305;82;21027;-71
2021/08/18 06:57:40;;;;;;;4.78;2.98;;;;;;;19.86;61.68;100061.86;2874385;81;21051;-71
2021/08/18 07:01:43;;;;;;;4.42;2.95;;;;;;;20.15;61.43;100062.77;2886106;82;21067;-71
2021/08/18 07:05:46;;;;;;;4.50;2.50;;;;;;;20.31;60.03;100059.80;2888537;82;21066;-71
2021/08/18 07:09:47;;;;;;;6.40;2.87;;;;;;;20.42;60.26;100062.47;2888524;81;20987;-71
2021/08/18 07:13:49;;;;;;;3.37;2.87;;;;;;;20.53;58.88;100065.97;2888504;82;21042;-71
2021/08/18 07:17:51;;;;;;;4.72;2.47;;;;;;;20.55;58.68;100057.17;2888535;81;21400;-71
2021/08/18 07:21:53;;;;;;;4.12;2.40;;;;;;;20.54;58.88;100060.91;2888510;82;20975;-71
2021/08/18 07:25:55;;;;;;;8.83;3.55;;;;;;;20.62;58.04;100065.83;2888661;82;21006;-71
2021/08/18 07:29:57;;;;;;;6.70;2.17;;;;;;;20.64;57.81;100068.66;2888631;82;20991;-71
2021/08/18 07:33:59;;;;;;;9.20;3.55;;;;;;;20.83;57.93;100069.84;2888552;82;21317;-71
2021/08/18 07:38:00;;;;;;;6.03;2.47;;;;;;;21.00;57.25;100061.91;2888713;82;21066;-71
2021/08/18 07:42:03;;;;;;;4.65;3.35;;;;;;;21.18;57.17;100064.91;2889057;82;21031;-71
2021/08/18 07:46:05;;;;;;;4.62;1.52;;;;;;;21.19;56.46;100076.05;2888726;82;21078;-73
2021/08/18 07:50:08;;;;;;;3.45;2.10;;;;;;;21.09;57.56;100078.30;2889177;82;20976;-71
2021/08/18 07:54:10;;;;;;;4.42;2.35;;;;;;;21.12;56.33;100081.42;2889193;82;21063;-71
2021/08/18 07:58:12;;;;;;;3.20;2.12;;;;;;;20.67;56.74;100080.42;2888598;82;21042;-71
2021/08/18 08:02:20;;;;;;;2.87;1.90;;;;;;;20.36;58.06;100080.29;2888455;82;21027;-71
2021/08/18 08:06:22;;;;;;;13.58;4.10;;;;;;;20.00;58.07;100080.39;2888508;82;21047;-71
2021/08/18 08:10:23;;;;;;;3.25;2.37;;;;;;;19.89;58.15;100063.64;2888923;82;21008;-71
2021/08/18 08:14:25;;;;;;;5.95;1.95;;;;;;;19.65;58.65;100083.72;2888892;82;21062;-71
2021/08/18 08:18:27;;;;;;;1.82;1.47;;;;;;;19.56;58.50;100072.25;2889283;81;21062;-71
2021/08/18 08:22:28;;;;;;;3.62;1.85;;;;;;;19.68;59.03;100086.89;2888913;82;21458;-71
2021/08/18 08:26:30;;;;;;;1.45;1.02;;;;;;;19.84;58.53;100080.41;2889380;81;21026;-71
2021/08/18 08:30:32;;;;;;;2.10;1.65;;;;;;;20.17;58.63;100085.86;2889264;82;21038;-71
2021/08/18 08:34:34;;;;;;;1.82;1.32;;;;;;;20.34;58.08;100082.35;2889281;81;21031;-71
2021/08/18 08:38:35;;;;;;;2.90;1.62;;;;;;;20.68;56.08;100090.20;2889183;81;20991;-71
2021/08/18 08:42:39;;;;;;;2.08;1.72;;;;;;;20.49;56.58;100074.15;2889105;82;21011;-71
2021/08/18 08:46:42;;;;;;;4.30;2.52;;;;;;;20.59;56.90;100064.34;2883659;81;21062;-71
2021/08/18 08:50:48;;;;;;;26.42;4.83;;;;;;;20.58;57.18;100071.31;2867566;83;21109;-71
2021/08/18 08:54:49;;;;;;;3.15;1.60;;;;;;;20.85;57.34;100076.91;2867575;83;21003;-71
2021/08/18 08:58:52;;;;;;;1.35;1.10;;;;;;;21.10;56.84;100071.32;2867259;83;21062;-71
2021/08/18 09:03:20;;;;;;;2.52;1.98;;;;;;;21.03;56.21;100068.27;2910383;82;21086;-71
2021/08/18 09:07:24;;;;;;;2.05;1.52;;;;;;;21.02;56.33;100062.04;2910331;82;21003;-71
2021/08/18 09:11:27;;;;;;;2.52;1.72;;;;;;;20.81;56.61;100074.61;2910472;82;21256;-71
2021/08/18 09:15:29;;;;;;;2.37;1.82;;;;;;;20.80;56.22;100068.04;2910176;82;21019;-71
2021/08/18 09:19:31;;;;;;;1.50;1.22;;;;;;;20.93;56.18;100053.77;2910277;82;21062;-71
2021/08/18 09:23:33;;;;;;;4.08;1.27;;;;;;;21.24;56.42;100043.84;2910276;82;20975;-71
2021/08/18 09:27:35;;;;;;;2.85;1.57;;;;;;;21.32;54.57;100035.22;2909961;82;21267;-71
2021/08/18 09:31:37;;;;;;;2.20;1.82;;;;;;;21.10;55.94;100054.28;2910370;81;21026;-71
2021/08/18 09:35:40;;;;;;;1.02;0.85;;;;;;;20.92;56.10;100065.61;2910104;82;21003;-71
2021/08/18 09:39:42;;;;;;;1.40;1.17;;;;;;;20.65;56.46;100070.33;2910164;81;21030;-71
2021/08/18 09:43:43;;;;;;;0.80;0.70;;;;;;;20.36;57.42;100066.78;2909990;82;21034;-71
2021/08/18 09:48:05;;;;;;;1.98;1.07;;;;;;;20.15;57.89;100062.77;2910082;82;21023;-71
2021/08/18 09:52:06;;;;;;;1.32;0.88;;;;;;;20.10;58.90;100062.84;2910270;82;20986;-71
2021/08/18 09:56:14;;;;;;;1.10;0.70;;;;;;;20.24;58.47;100064.28;2910581;82;21054;-71
2021/08/18 10:00:18;;;;;;;1.25;0.75;;;;;;;20.41;58.37;100068.38;2910251;80;21019;-71
2021/08/18 10:04:20;;;;;;;1.57;1.47;;;;;;;20.69;57.60;100063.49;2859230;82;21018;-71
2021/08/18 10:08:23;;;;;;;3.42;0.80;;;;;;;20.82;57.22;100053.81;2910273;82;21031;-71
2021/08/18 10:12:25;;;;;;;2.00;1.40;;;;;;;20.93;57.11;100050.55;2910301;82;21042;-71
2021/08/18 10:16:27;;;;;;;1.65;1.00;;;;;;;21.04;56.06;100046.45;2910203;82;21003;-72
2021/08/18 10:20:30;;;;;;;0.90;0.50;;;;;;;21.07;56.71;100050.63;2910192;81;21046;-72
2021/08/18 10:24:38;;;;;;;1.85;0.80;;;;;;;21.13;56.33;100043.05;2909878;82;21002;-71
2021/08/18 10:29:19;;;;;;;1.98;1.00;;;;;;;21.07;55.29;100043.87;2910150;82;21026;-71
2021/08/18 10:33:56;;;;;;;1.27;0.57;;;;;;;21.03;56.13;100046.63;2831551;84;21010;-71
2021/08/18 10:38:26;;;;;;;117.15;23.62;;;;;;;21.16;56.53;100040.48;2832645;84;21097;-71
2021/08/18 10:42:47;;;;;;;1.55;1.02;;;;;;;21.31;55.64;100032.20;2831626;84;20986;-71
2021/08/18 10:47:17;;;;;;;1.35;0.68;;;;;;;21.37;56.01;100034.09;2833162;84;21030;-71
2021/08/18 10:51:44;;;;;;;1.25;0.80;;;;;;;21.51;56.00;100024.97;2819708;84;21006;-71
2021/08/18 10:55:45;;;;;;;4.47;1.37;;;;;;;21.82;56.55;100024.13;2832399;84;21002;-71
2021/08/18 10:59:53;;;;;;;3.58;0.90;;;;;;;22.08;55.67;100011.12;2830913;83;21062;-71
2021/08/18 11:03:55;;;;;;;1.85;0.80;;;;;;;22.44;55.70;100012.23;2822257;83;21019;-71
2021/08/18 11:08:35;;;;;;;2.83;1.40;;;;;;;22.55;52.61;99996.70;2861897;83;21042;-71
2021/08/18 11:12:48;;;;;;;35.83;7.30;;;;;;;22.18;53.43;100015.27;2862103;82;21069;-72
2021/08/18 11:16:51;;;;;;;3.35;1.20;;;;;;;21.94;54.87;100008.09;2862572;82;20968;-71
2021/08/18 11:20:55;;;;;;;4.78;1.20;;;;;;;21.96;55.09;100006.85;2862628;82;21105;-71
2021/08/18 11:25:03;;;;;;;2.50;1.07;;;;;;;22.00;55.94;100004.54;2862266;82;21031;-71
2021/08/18 11:29:12;;;;;;;0.85;0.62;;;;;;;21.95;54.69;100001.63;2862102;82;21027;-71
2021/08/18 11:33:20;;;;;;;3.50;1.05;;;;;;;21.84;55.63;100005.80;2861945;83;21039;-70
2021/08/18 11:37:22;;;;;;;2.90;1.22;;;;;;;21.78;55.44;99997.97;2862377;82;20968;-72
2021/08/18 11:41:41;;;;;;;0.88;0.50;;;;;;;21.67;56.46;99997.25;2862868;82;21062;-72
2021/08/18 11:45:51;;;;;;;1.15;0.95;;;;;;;21.77;56.68;99986.02;2862279;82;21338;-71
2021/08/18 11:49:53;;;;;;;1.62;0.90;;;;;;;21.82;55.65;99980.80;2862002;83;21054;-71
2021/08/18 11:53:55;;;;;;;3.98;1.35;;;;;;;21.96;56.70;99970.80;2862196;82;21019;-71
2021/08/18 11:58:07;;;;;;;1.20;0.78;;;;;;;22.30;55.99;99966.19;2862137;83;20983;-71
2021/08/18 12:02:11;;;;;;;1.42;1.00;;;;;;;22.58;54.50;99958.33;2890153;82;21034;-71
2021/08/18 12:06:12;;;;;;;2.22;0.93;;;;;;;22.78;54.41;99957.42;2910108;81;20975;-71
2021/08/18 12:10:18;;;;;;;1.67;1.20;;;;;;;23.12;56.21;99958.10;2910048;82;21357;-71
2021/08/18 12:14:22;;;;;;;1.70;0.90;;;;;;;23.19;52.45;99946.71;2910057;82;21003;-71
2021/08/18 12:18:34;;;;;;;1.27;0.80;;;;;;;22.99;52.06;99948.67;2910122;81;21054;-72
2021/08/18 12:22:36;;;;;;;3.10;1.20;;;;;;;22.83;53.09;99950.85;2910533;81;21046;-71
2021/08/18 12:26:45;;;;;;;1.72;1.40;;;;;;;22.77;53.20;99955.25;2910254;81;21053;-71
2021/08/18 12:31:05;;;;;;;1.70;0.78;;;;;;;22.72;53.54;99952.87;2910279;81;21031;-71
2021/08/18 12:35:11;;;;;;;1.35;1.25;;;;;;;22.74;53.72;99948.06;2910439;82;21074;-71
2021/08/18 12:39:13;;;;;;;1.35;0.93;;;;;;;22.96;54.09;99943.17;2910627;82;20991;-71
2021/08/18 12:43:20;;;;;;;4.22;1.37;;;;;;;23.18;55.17;99943.66;2910340;82;21061;-71
2021/08/18 12:47:21;;;;;;;2.15;1.60;;;;;;;23.30;52.77;99941.66;2910279;82;21002;-71
2021/08/18 12:51:23;;;;;;;2.08;1.42;;;;;;;23.15;53.49;99937.86;2907334;82;20994;-71
2021/08/18 12:55:25;;;;;;;1.45;1.02;;;;;;;22.97;54.28;99933.45;2910068;82;20991;-71
2021/08/18 12:59:27;;;;;;;2.95;1.42;;;;;;;22.94;55.29;99933.89;2910598;82;21089;-71
2021/08/18 13:03:29;;;;;;;2.55;1.50;;;;;;;23.05;55.29;99925.59;2910173;82;21027;-68
2021/08/18 13:07:31;;;;;;;0.93;0.82;;;;;;;23.19;54.10;99923.66;2910330;81;21074;-68
2021/08/18 13:11:34;;;;;;;2.20;1.62;;;;;;;23.25;54.12;99922.80;2910370;81;21054;-69
2021/08/18 13:15:35;;;;;;;1.25;0.65;;;;;;;23.44;54.87;99912.54;2910529;81;21093;-68
2021/08/18 13:19:37;;;;;;;8.15;2.10;;;;;;;23.71;54.30;99918.59;2911036;82;21041;-68
2021/08/18 13:23:39;;;;;;;1.67;0.80;;;;;;;23.87;53.31;99923.16;2911253;82;21015;-68
2021/08/18 13:27:41;;;;;;;2.62;1.15;;;;;;;23.85;53.62;99907.08;2910447;82;21010;-69
2021/08/18 13:31:43;;;;;;;3.45;1.52;;;;;;;23.75;53.25;99904.05;2909646;82;21011;-69
2021/08/18 13:35:46;;;;;;;2.92;0.98;;;;;;;23.67;54.20;99903.80;2910080;81;20990;-68
2021/08/18 13:39:49;;;;;;;3.30;1.02;;;;;;;23.57;53.55;99905.66;2903064;82;21434;-68
2021/08/18 13:43:51;;;;;;;2.45;1.15;;;;;;;23.57;54.07;99900.74;2891907;82;21050;-68
2021/08/18 13:47:53;;;;;;;5.00;1.92;;;;;;;23.53;54.16;99894.41;2880976;82;21042;-69
2021/08/18 13:51:55;;;;;;;2.17;1.40;;;;;;;23.59;54.61;99896.77;2902235;82;21038;-68
2021/08/18 13:55:57;;;;;;;18.55;1.52;;;;;;;23.60;54.18;99889.47;2869606;82;21065;-68
2021/08/18 13:59:58;;;;;;;2.20;1.20;;;;;;;23.60;55.15;99889.47;2871017;82;21058;-67
2021/08/18 14:04:00;;;;;;;1.22;0.90;;;;;;;23.63;55.03;99890.38;2851235;82;21079;-67
2021/08/18 14:08:10;;;;;;;2.90;1.40;;;;;;;23.62;54.64;99887.36;2882164;81;21082;-67
2021/08/18 14:12:07;;;;;;;2.42;1.67;;;;;;;23.61;54.66;99879.73;2837804;82;21643;-67
2021/08/18 14:16:09;;;;;;;2.22;1.05;;;;;;;23.66;54.67;99893.45;2866627;82;21055;-68
2021/08/18 14:20:11;;;;;;;2.37;1.10;;;;;;;23.78;54.67;99890.88;2887001;81;21023;-67
2021/08/18 14:24:14;;;;;;;0.88;0.80;;;;;;;23.76;54.94;99886.16;2882678;82;21007;-67
2021/08/18 14:28:15;;;;;;;0.75;0.47;;;;;;;23.66;55.04;99886.67;2867454;82;21059;-66
2021/08/18 14:32:18;;;;;;;1.00;0.50;;;;;;;23.63;54.58;99884.41;2851307;82;21509;-67
2021/08/18 14:36:21;;;;;;;0.65;0.37;;;;;;;23.53;54.55;99879.47;2848631;82;21281;-67
2021/08/18 14:40:25;;;;;;;1.42;1.10;;;;;;;23.43;55.15;99872.37;2857651;81;20996;-69
2021/08/18 14:44:28;;;;;;;4.35;0.82;;;;;;;23.42;56.17;99868.00;2863672;82;21086;-67
2021/08/18 14:48:31;;;;;;;2.45;1.65;;;;;;;23.51;55.65;99861.23;2810523;84;21067;-69
2021/08/18 14:52:33;;;;;;;4.97;1.15;;;;;;;23.57;56.33;99873.09;2857516;82;20984;-68
2021/08/18 14:56:35;;;;;;;1.70;1.20;;;;;;;23.75;56.21;99876.36;2852653;82;21016;-68
2021/08/18 15:00:38;;;;;;;3.25;1.15;;;;;;;23.96;55.58;99876.48;2886796;82;21016;-69
2021/08/18 15:04:41;;;;;;;1.25;0.70;;;;;;;24.24;55.78;99874.34;2854127;82;30734;-68
2021/08/18 15:08:43;;;;;;;4.53;1.25;;;;;;;24.22;55.07;99874.55;2883365;82;21030;-69
2021/08/18 15:12:44;;;;;;;1.62;0.93;;;;;;;24.12;55.18;99870.70;2882006;82;20979;-68
2021/08/18 15:16:46;;;;;;;1.72;0.68;;;;;;;24.00;55.08;99879.59;2883304;82;21045;-68
2021/08/18 15:20:48;;;;;;;1.60;1.02;;;;;;;23.91;55.14;99879.55;2883321;82;21089;-68
2021/08/18 15:24:50;;;;;;;1.12;1.02;;;;;;;23.78;56.07;99881.88;2883523;82;20991;-69
2021/08/18 15:28:51;;;;;;;3.90;1.60;;;;;;;23.74;56.25;99877.95;2883193;82;21073;-68
2021/08/18 15:32:54;;;;;;;19.27;2.87;;;;;;;23.73;56.36;99873.04;2883159;82;20959;-68
2021/08/18 15:36:59;;;;;;;0.88;0.50;;;;;;;23.65;55.80;99873.34;2871497;82;21039;-68
2021/08/18 15:41:00;;;;;;;1.35;0.82;;;;;;;23.56;56.44;99871.94;2884107;82;21010;-68
2021/08/18 15:45:05;;;;;;;1.47;0.70;;;;;;;23.30;56.15;99865.17;2883861;82;21018;-68
2021/08/18 15:49:07;;;;;;;8.28;1.65;;;;;;;23.02;56.82;99869.07;2883497;82;21005;-68
2021/08/18 15:53:10;;;;;;;3.58;1.00;;;;;;;22.84;57.65;99871.17;2851674;82;21061;-68
2021/08/18 15:57:12;;;;;;;1.75;0.60;;;;;;;22.76;57.60;99868.70;2877279;82;21014;-69
2021/08/18 16:01:14;;;;;;;4.12;1.40;;;;;;;22.68;58.06;99868.42;2850135;82;21045;-68
2021/08/18 16:05:16;;;;;;;1.57;1.47;;;;;;;22.61;58.49;99862.21;2830380;82;20999;-68
2021/08/18 16:09:18;;;;;;;16.23;1.77;;;;;;;22.49;58.81;99855.28;2864123;82;21019;-68
2021/08/18 16:13:20;;;;;;;1.30;0.60;;;;;;;22.42;58.92;99858.53;2875943;82;21493;-70
2021/08/18 16:17:26;;;;;;;1.32;0.65;;;;;;;22.32;59.38;99869.28;2887605;82;21016;-70
2021/08/18 16:21:25;;;;;;;1.90;0.80;;;;;;;22.21;59.60;99863.19;2885832;82;21655;-70
2021/08/18 16:25:27;;;;;;;0.72;0.50;;;;;;;22.06;59.95;99866.97;2842889;81;21086;-70
2021/08/18 16:29:29;;;;;;;1.12;0.85;;;;;;;21.92;59.68;99869.38;2837714;84;21046;-69
2021/08/18 16:33:31;;;;;;;1.02;0.80;;;;;;;21.80;59.96;99874.08;2837915;84;20987;-69
2021/08/18 16:37:34;;;;;;;0.98;0.50;;;;;;;21.64;60.63;99874.50;2838006;83;21026;-70
2021/08/18 16:41:36;;;;;;;1.47;0.98;;;;;;;21.51;61.26;99876.16;2837753;84;21046;-70
2021/08/18 16:45:38;;;;;;;1.20;0.75;;;;;;;21.42;61.89;99876.57;2871084;82;21034;-69
2021/08/18 16:49:40;;;;;;;1.35;1.12;;;;;;;21.33;62.54;99869.17;2837712;84;20964;-68
2021/08/18 16:53:42;;;;;;;3.05;0.60;;;;;;;21.28;63.13;99867.62;2837798;84;21312;-70
2021/08/18 16:57:44;;;;;;;1.42;0.68;;;;;;;21.24;63.48;99873.45;2836160;84;20960;-69
2021/08/18 17:01:46;;;;;;;0.88;0.68;;;;;;;21.22;63.79;99866.56;2837779;83;21027;-69
2021/08/18 17:05:48;;;;;;;1.72;1.00;;;;;;;21.20;64.06;99865.95;2867896;82;21063;-69
2021/08/18 17:09:50;;;;;;;3.12;1.25;;;;;;;21.17;64.36;99867.17;2887885;82;21050;-70
2021/08/18 17:13:52;;;;;;;2.00;0.90;;;;;;;21.11;64.14;99869.36;2886763;81;21031;-70
2021/08/18 17:17:54;;;;;;;1.42;0.70;;;;;;;21.05;63.99;99865.60;2876620;81;20987;-70
2021/08/18 17:21:55;;;;;;;4.58;1.05;;;;;;;20.99;64.34;99871.84;2871454;82;21079;-72
2021/08/18 17:25:57;;;;;;;9.68;1.47;;;;;;;20.93;64.72;99876.69;2890822;81;21011;-72
2021/08/18 17:29:59;;;;;;;0.98;0.88;;;;;;;20.87;65.21;99876.16;2889783;82;20996;-72
2021/08/18 17:34:01;;;;;;;1.12;0.70;;;;;;;20.82;65.65;99872.72;2889996;81;21717;-72
2021/08/18 17:38:02;;;;;;;0.75;0.57;;;;;;;20.77;66.26;99881.42;2889841;82;21034;-71
2021/08/18 17:42:05;;;;;;;1.17;1.00;;;;;;;20.75;66.71;99874.55;2889878;81;20968;-71
2021/08/18 17:46:07;;;;;;;1.77;1.12;;;;;;;20.71;67.02;99869.23;2889987;81;20991;-71
2021/08/18 17:50:10;;;;;;;23.95;5.20;;;;;;;20.66;67.18;99873.89;2890388;81;21010;-71
2021/08/18 17:54:12;;;;;;;0.98;0.90;;;;;;;20.60;67.42;99886.33;2890179;82;20994;-72
2021/08/18 17:58:14;;;;;;;2.47;1.17;;;;;;;20.57;67.54;99889.44;2889008;81;21251;-72
2021/08/18 18:02:17;;;;;;;15.93;3.60;;;;;;;20.53;67.94;99896.29;2880807;82;21085;-70
2021/08/18 18:06:19;;;;;;;1.20;0.62;;;;;;;20.48;67.72;99895.53;2890527;81;21033;-70
2021/08/18 18:10:22;;;;;;;1.82;0.95;;;;;;;20.47;67.81;99901.16;2889717;82;21022;-70
2021/08/18 18:14:24;;;;;;;0.82;0.70;;;;;;;20.43;67.78;99893.11;2890448;81;21051;-70
2021/08/18 18:18:25;;;;;;;1.90;0.80;;;;;;;20.36;68.12;99898.50;2884410;82;21029;-71
2021/08/18 18:22:31;;;;;;;1.80;0.90;;;;;;;20.28;68.35;99898.15;2890043;82;20975;-72
2021/08/18 18:26:33;;;;;;;2.77;0.85;;;;;;;20.21;68.51;99906.70;2890612;81;20963;-70
2021/08/18 18:30:35;;;;;;;1.85;0.93;;;;;;;20.07;68.97;99899.90;2890464;82;21016;-72
2021/08/18 18:34:43;;;;;;;2.30;0.62;;;;;;;19.97;69.37;99915.59;2889675;81;21007;-71
2021/08/18 18:38:45;;;;;;;2.55;1.27;;;;;;;19.86;69.79;99916.13;2889836;82;21003;-71
2021/08/18 18:42:48;;;;;;;1.67;0.90;;;;;;;19.77;70.05;99914.91;2877260;82;21018;-72
2021/08/18 18:46:49;;;;;;;4.65;1.05;;;;;;;19.70;70.28;99919.42;2860769;82;21113;-70
2021/08/18 18:50:51;;;;;;;1.82;1.10;;;;;;;19.62;70.39;99928.98;2874977;82;21035;-71
2021/08/18 18:54:53;;;;;;;1.87;1.00;;;;;;;19.48;70.78;99923.99;2878035;81;20990;-71
2021/08/18 18:58:54;;;;;;;3.55;1.82;;;;;;;19.35;71.15;99924.70;2888677;82;21022;-71
2021/08/18 19:02:56;;;;;;;1.47;0.68;;;;;;;19.28;71.62;99920.59;2885625;82;21064;-71
2021/08/18 19:06:59;;;;;;;3.37;1.05;;;;;;;19.18;71.87;99912.81;2878498;81;21097;-71
2021/08/18 19:11:01;;;;;;;2.22;1.02;;;;;;;19.10;72.23;99907.56;2883724;81;21038;-71